Time;durP1;ratioP1;P1;durP2;ratioP2;P2;SDS_P1;SDS_P2;PMS_P1;PMS_P2;Temp;Humidity;BMP_temperature;BMP_pressure;BME280_temperature;BME280_humidity;BME280_pressure;Samples;Min_cycle;Max_cycle;Signal;HPM_P1;HPM_P2
2024/01/26 00:00:14;;;;;;;36.55;15.00;;;;;;;;;;5045018;28;20010;-80
2024/01/26 00:02:40;;;;;;;36.65;13.55;;;;;;;;;;5030776;28;20018;-80
2024/01/26 00:05:07;;;;;;;30.88;13.45;;;;;;;;;;5033089;28;20392;-80
2024/01/26 00:07:33;;;;;;;36.38;13.40;;;;;;;;;;5050037;28;20087;-79
2024/01/26 00:09:59;;;;;;;32.13;13.02;;;;;;;;;;5049194;28;20021;-79
2024/01/26 00:12:25;;;;;;;31.52;12.30;;;;;;;;;;5032280;28;20080;-80
2024/01/26 00:14:51;;;;;;;28.77;11.27;;;;;;;;;;5030294;28;20489;-80
2024/01/26 00:17:17;;;;;;;28.48;11.98;;;;;;;;;;5030074;28;20029;-80
2024/01/26 00:19:43;;;;;;;27.95;11.38;;;;;;;;;;5029658;28;20020;-80
2024/01/26 00:22:09;;;;;;;25.92;11.05;;;;;;;;;;5048311;28;20021;-80
2024/01/26 00:24:35;;;;;;;25.90;11.82;;;;;;;;;;5049201;28;20017;-80
2024/01/26 00:27:01;;;;;;;27.33;11.00;;;;;;;;;;5031891;28;20031;-79
2024/01/26 00:29:27;;;;;;;23.98;10.75;;;;;;;;;;5028653;28;20052;-80
2024/01/26 00:31:53;;;;;;;28.80;11.65;;;;;;;;;;5038196;28;20033;-79
2024/01/26 00:34:19;;;;;;;22.98;12.27;;;;;;;;;;5049084;28;20029;-80
2024/01/26 00:36:45;;;;;;;25.30;12.10;;;;;;;;;;5034092;28;20021;-79
2024/01/26 00:39:11;;;;;;;29.00;13.55;;;;;;;;;;5031058;28;20516;-80
2024/01/26 00:41:37;;;;;;;26.92;13.35;;;;;;;;;;5028549;28;20017;-79
2024/01/26 00:44:03;;;;;;;26.25;12.93;;;;;;;;;;5030041;28;20021;-79
2024/01/26 00:46:29;;;;;;;31.40;15.18;;;;;;;;;;5041557;28;20025;-79
2024/01/26 00:48:55;;;;;;;26.75;14.45;;;;;;;;;;5049150;28;20052;-80
2024/01/26 00:51:21;;;;;;;28.23;14.63;;;;;;;;;;5038300;28;20052;-79
2024/01/26 00:53:47;;;;;;;32.60;14.60;;;;;;;;;;5028607;28;20005;-80
2024/01/26 00:56:13;;;;;;;27.58;14.48;;;;;;;;;;5039183;28;20155;-79
2024/01/26 00:58:39;;;;;;;29.10;15.35;;;;;;;;;;5049830;28;20021;-80
2024/01/26 01:01:06;;;;;;;26.88;14.73;;;;;;;;;;5040689;28;20072;-80
2024/01/26 01:03:32;;;;;;;23.27;14.32;;;;;;;;;;5029275;28;20044;-80
2024/01/26 01:05:58;;;;;;;26.48;14.32;;;;;;;;;;5037054;28;20549;-79
2024/01/26 01:08:24;;;;;;;22.08;12.82;;;;;;;;;;5048301;28;20017;-79
2024/01/26 01:10:50;;;;;;;22.95;12.25;;;;;;;;;;5045175;28;20039;-79
2024/01/26 01:13:16;;;;;;;22.50;13.10;;;;;;;;;;5028143;28;20026;-79
2024/01/26 01:15:42;;;;;;;22.85;12.95;;;;;;;;;;5028335;28;20051;-80
2024/01/26 01:18:08;;;;;;;20.90;12.18;;;;;;;;;;5028170;28;20017;-79
2024/01/26 01:20:34;;;;;;;22.05;11.50;;;;;;;;;;5027922;28;20049;-80
2024/01/26 01:23:01;;;;;;;17.60;9.90;;;;;;;;;;5047231;28;20477;-79
2024/01/26 01:25:27;;;;;;;16.95;9.85;;;;;;;;;;5048024;28;20021;-80
2024/01/26 01:27:53;;;;;;;21.63;10.18;;;;;;;;;;5048130;28;20040;-79
2024/01/26 01:30:19;;;;;;;18.10;9.93;;;;;;;;;;5048479;28;20596;-79
2024/01/26 01:32:45;;;;;;;21.83;11.15;;;;;;;;;;5034830;28;20108;-79
2024/01/26 01:35:12;;;;;;;17.63;9.68;;;;;;;;;;5029430;28;20173;-80
2024/01/26 01:37:38;;;;;;;18.98;10.27;;;;;;;;;;5040333;28;20025;-80
2024/01/26 01:40:04;;;;;;;16.48;8.57;;;;;;;;;;5048979;28;20096;-79
2024/01/26 01:42:30;;;;;;;18.88;9.20;;;;;;;;;;5036601;28;20018;-80
2024/01/26 01:44:56;;;;;;;21.88;9.32;;;;;;;;;;5028249;28;20120;-80
2024/01/26 01:47:22;;;;;;;15.57;8.10;;;;;;;;;;5029288;28;20017;-80
2024/01/26 01:49:48;;;;;;;16.98;8.95;;;;;;;;;;5028486;28;20029;-80
2024/01/26 01:52:18;;;;;;;17.52;8.88;;;;;;;;;;5035234;28;20023;-79
2024/01/26 01:54:45;;;;;;;19.25;8.75;;;;;;;;;;5049406;28;20032;-80
2024/01/26 01:57:14;;;;;;;16.92;7.72;;;;;;;;;;5048047;28;20028;-80
2024/01/26 01:59:43;;;;;;;18.67;8.50;;;;;;;;;;5049947;28;20013;-79
2024/01/26 02:02:10;;;;;;;14.77;8.13;;;;;;;;;;5044932;28;20017;-80
2024/01/26 02:04:36;;;;;;;18.30;8.27;;;;;;;;;;5029261;28;20733;-80
2024/01/26 02:07:03;;;;;;;16.50;8.18;;;;;;;;;;5030233;28;20013;-79
2024/01/26 02:09:29;;;;;;;20.95;8.80;;;;;;;;;;5048970;28;20059;-80
2024/01/26 02:11:56;;;;;;;17.48;9.45;;;;;;;;;;5048240;28;20035;-80
2024/01/26 02:14:23;;;;;;;20.00;9.38;;;;;;;;;;5027870;28;20041;-80
2024/01/26 02:16:59;;;;;;;22.17;9.88;;;;;;;;;;5027878;28;20065;-80
2024/01/26 02:19:25;;;;;;;19.02;10.05;;;;;;;;;;5029467;28;20030;-79
2024/01/26 02:21:51;;;;;;;18.17;9.68;;;;;;;;;;5030605;28;20010;-79
2024/01/26 02:24:18;;;;;;;20.55;9.93;;;;;;;;;;5051409;28;20031;-79
2024/01/26 02:26:44;;;;;;;19.58;10.52;;;;;;;;;;5051380;28;20017;-79
2024/01/26 02:29:10;;;;;;;20.58;11.10;;;;;;;;;;5033948;28;20042;-79
2024/01/26 02:31:36;;;;;;;19.50;10.77;;;;;;;;;;5032674;28;20005;-79
2024/01/26 02:34:02;;;;;;;22.30;11.20;;;;;;;;;;5048008;28;20021;-79
2024/01/26 02:36:29;;;;;;;25.40;11.52;;;;;;;;;;5052395;28;20029;-79
2024/01/26 02:38:55;;;;;;;25.08;12.55;;;;;;;;;;5036835;28;20029;-79
2024/01/26 02:41:21;;;;;;;27.23;13.35;;;;;;;;;;5032330;28;20492;-80
2024/01/26 02:43:47;;;;;;;28.75;13.95;;;;;;;;;;5044423;28;20100;-79
2024/01/26 02:46:13;;;;;;;28.15;14.18;;;;;;;;;;5052502;28;20095;-80
2024/01/26 02:48:39;;;;;;;31.33;14.38;;;;;;;;;;5041929;28;20105;-80
2024/01/26 02:51:06;;;;;;;29.80;14.38;;;;;;;;;;5030723;28;20013;-79
2024/01/26 02:53:32;;;;;;;33.45;15.68;;;;;;;;;;5040103;28;20025;-79
2024/01/26 02:55:58;;;;;;;32.55;15.82;;;;;;;;;;5050770;28;20037;-79
2024/01/26 02:58:24;;;;;;;26.88;14.10;;;;;;;;;;5044243;28;20044;-79
2024/01/26 03:00:50;;;;;;;31.90;14.82;;;;;;;;;;5033292;28;20013;-80
2024/01/26 03:03:16;;;;;;;32.10;14.52;;;;;;;;;;5034400;28;20048;-79
2024/01/26 03:05:42;;;;;;;33.25;14.88;;;;;;;;;;5051134;28;20021;-79
2024/01/26 03:08:08;;;;;;;34.08;14.73;;;;;;;;;;5048891;28;20032;-79
2024/01/26 03:10:35;;;;;;;32.97;14.23;;;;;;;;;;5049597;28;20096;-79
2024/01/26 03:13:00;;;;;;;37.22;16.05;;;;;;;;;;5051408;28;20036;-79
2024/01/26 03:15:26;;;;;;;43.95;17.23;;;;;;;;;;5050349;28;20029;-79
2024/01/26 03:17:52;;;;;;;45.50;17.45;;;;;;;;;;5051206;28;20013;-79
2024/01/26 03:20:18;;;;;;;41.13;17.25;;;;;;;;;;5031748;28;20047;-79
2024/01/26 03:22:45;;;;;;;41.25;16.70;;;;;;;;;;5030426;28;20462;-79
2024/01/26 03:25:11;;;;;;;45.50;17.40;;;;;;;;;;5049009;28;20021;-79
2024/01/26 03:27:37;;;;;;;41.97;16.52;;;;;;;;;;5050253;28;20477;-79
2024/01/26 03:30:06;;;;;;;43.05;17.40;;;;;;;;;;5050886;28;20053;-80
2024/01/26 03:32:32;;;;;;;43.97;17.67;;;;;;;;;;5049648;28;20106;-79
2024/01/26 03:34:59;;;;;;;40.75;16.60;;;;;;;;;;5034467;28;20587;-80
2024/01/26 03:37:25;;;;;;;46.75;18.25;;;;;;;;;;5029738;28;20016;-79
2024/01/26 03:39:51;;;;;;;40.60;18.05;;;;;;;;;;5043668;28;20048;-80
2024/01/26 03:42:17;;;;;;;40.38;17.58;;;;;;;;;;5051235;28;20009;-80
2024/01/26 03:44:43;;;;;;;40.70;17.98;;;;;;;;;;5049392;28;20017;-79
2024/01/26 03:47:09;;;;;;;39.63;16.40;;;;;;;;;;5050126;28;20112;-80
2024/01/26 03:49:36;;;;;;;38.97;16.25;;;;;;;;;;5041584;28;20521;-80
2024/01/26 03:52:03;;;;;;;36.95;14.90;;;;;;;;;;5030424;28;20067;-79
2024/01/26 03:54:29;;;;;;;39.50;16.08;;;;;;;;;;5037938;28;20520;-80
2024/01/26 03:56:55;;;;;;;37.80;15.50;;;;;;;;;;5051862;28;20009;-80
2024/01/26 03:59:21;;;;;;;35.95;15.10;;;;;;;;;;5043300;28;20491;-80
2024/01/26 04:01:47;;;;;;;33.33;14.85;;;;;;;;;;5031653;28;20009;-80
2024/01/26 04:04:13;;;;;;;34.83;14.85;;;;;;;;;;5034736;28;20108;-80
2024/01/26 04:06:40;;;;;;;30.25;14.27;;;;;;;;;;5050854;28;20017;-80
2024/01/26 04:09:06;;;;;;;36.33;13.93;;;;;;;;;;5046801;28;20021;-80
2024/01/26 04:11:32;;;;;;;31.35;14.50;;;;;;;;;;5031053;28;20096;-80
2024/01/26 04:13:58;;;;;;;29.30;14.32;;;;;;;;;;5032011;28;20101;-80
2024/01/26 04:16:24;;;;;;;31.85;13.32;;;;;;;;;;5049390;28;20067;-80
2024/01/26 04:18:50;;;;;;;32.53;14.68;;;;;;;;;;5047874;28;20053;-79
2024/01/26 04:21:16;;;;;;;30.75;13.90;;;;;;;;;;5030578;28;20100;-80
2024/01/26 04:23:42;;;;;;;29.05;13.38;;;;;;;;;;5030011;28;20064;-80
2024/01/26 04:26:08;;;;;;;28.30;13.75;;;;;;;;;;5049750;28;20017;-80
2024/01/26 04:28:34;;;;;;;31.42;14.52;;;;;;;;;;5050102;28;20055;-80
2024/01/26 04:31:01;;;;;;;31.33;14.52;;;;;;;;;;5031000;28;20033;-80
2024/01/26 04:33:27;;;;;;;32.70;14.75;;;;;;;;;;5030608;28;20607;-80
2024/01/26 04:35:53;;;;;;;31.65;13.93;;;;;;;;;;5045593;28;20036;-80
2024/01/26 04:38:19;;;;;;;31.65;13.98;;;;;;;;;;5050003;28;20013;-80
2024/01/26 04:40:45;;;;;;;30.70;14.38;;;;;;;;;;5033915;28;20047;-80
2024/01/26 04:43:11;;;;;;;26.58;13.70;;;;;;;;;;5029614;28;20018;-80
2024/01/26 04:45:37;;;;;;;34.47;13.88;;;;;;;;;;5044272;28;20569;-80
2024/01/26 04:48:04;;;;;;;31.05;13.80;;;;;;;;;;5048384;28;20469;-80
2024/01/26 04:50:30;;;;;;;31.42;13.55;;;;;;;;;;5035504;28;20406;-80
2024/01/26 04:52:57;;;;;;;27.02;13.05;;;;;;;;;;5028803;28;20021;-80
2024/01/26 04:55:25;;;;;;;25.60;12.75;;;;;;;;;;5040735;28;20514;-80
2024/01/26 04:57:51;;;;;;;27.02;12.95;;;;;;;;;;5048201;28;20020;-80
2024/01/26 05:00:18;;;;;;;30.50;13.45;;;;;;;;;;5040369;28;20029;-80
2024/01/26 05:02:44;;;;;;;29.92;14.18;;;;;;;;;;5029101;28;20017;-80
2024/01/26 05:05:14;;;;;;;25.88;13.50;;;;;;;;;;5036558;28;20044;-80
2024/01/26 05:07:40;;;;;;;30.20;13.95;;;;;;;;;;5049345;28;20488;-80
2024/01/26 05:10:06;;;;;;;32.17;14.43;;;;;;;;;;5040881;28;20064;-80
2024/01/26 05:12:33;;;;;;;29.67;15.35;;;;;;;;;;5028195;28;20021;-80
2024/01/26 05:14:59;;;;;;;34.17;15.38;;;;;;;;;;5034813;28;20112;-80
2024/01/26 05:17:25;;;;;;;31.35;15.02;;;;;;;;;;5048050;28;20124;-80
2024/01/26 05:19:51;;;;;;;37.65;17.15;;;;;;;;;;5029357;28;20014;-80
2024/01/26 05:22:18;;;;;;;35.70;16.58;;;;;;;;;;5028386;28;20386;-80
2024/01/26 05:24:44;;;;;;;32.67;15.32;;;;;;;;;;5031268;28;20480;-80
2024/01/26 05:27:11;;;;;;;34.80;16.60;;;;;;;;;;5050355;28;20029;-80
2024/01/26 05:29:37;;;;;;;34.15;15.43;;;;;;;;;;5048599;28;20037;-80
2024/01/26 05:32:03;;;;;;;31.27;15.88;;;;;;;;;;5028285;28;20023;-80
2024/01/26 05:34:29;;;;;;;27.88;15.05;;;;;;;;;;5028195;28;20465;-80
2024/01/26 05:36:55;;;;;;;32.17;15.18;;;;;;;;;;5048674;28;20645;-80
2024/01/26 05:39:21;;;;;;;31.70;14.05;;;;;;;;;;5050173;28;20104;-80
2024/01/26 05:41:47;;;;;;;26.95;12.98;;;;;;;;;;5030310;28;20116;-80
2024/01/26 05:44:13;;;;;;;26.33;13.52;;;;;;;;;;5028866;28;20018;-80
2024/01/26 05:46:39;;;;;;;27.77;14.02;;;;;;;;;;5047031;28;20017;-80
2024/01/26 05:49:05;;;;;;;29.08;13.65;;;;;;;;;;5049884;28;20040;-80
2024/01/26 05:51:32;;;;;;;28.70;14.07;;;;;;;;;;5033943;28;20056;-80
2024/01/26 05:53:58;;;;;;;31.63;14.65;;;;;;;;;;5028652;28;20021;-80
2024/01/26 05:56:24;;;;;;;27.85;15.10;;;;;;;;;;5043092;28;20079;-80
2024/01/26 05:58:52;;;;;;;31.42;15.05;;;;;;;;;;5048505;28;20677;-80
2024/01/26 06:01:18;;;;;;;30.77;15.07;;;;;;;;;;5036040;28;20013;-80
2024/01/26 06:03:44;;;;;;;24.58;14.55;;;;;;;;;;5028505;28;20477;-80
2024/01/26 06:06:10;;;;;;;27.63;14.70;;;;;;;;;;5041378;28;20088;-80
2024/01/26 06:08:36;;;;;;;29.80;15.38;;;;;;;;;;5049604;28;20036;-80
2024/01/26 06:11:03;;;;;;;26.88;14.15;;;;;;;;;;5038460;28;20018;-79
2024/01/26 06:13:29;;;;;;;30.27;14.77;;;;;;;;;;5028525;28;20029;-80
2024/01/26 06:15:55;;;;;;;27.33;14.23;;;;;;;;;;5037981;28;20063;-80
2024/01/26 06:18:21;;;;;;;30.35;15.13;;;;;;;;;;5048867;28;20025;-80
2024/01/26 06:20:47;;;;;;;26.20;14.20;;;;;;;;;;5040309;28;20533;-80
2024/01/26 06:23:13;;;;;;;30.90;15.80;;;;;;;;;;5028138;28;20018;-80
2024/01/26 06:25:39;;;;;;;30.25;14.52;;;;;;;;;;5038351;28;20014;-80
2024/01/26 06:28:05;;;;;;;25.35;13.98;;;;;;;;;;5029075;28;20030;-80
2024/01/26 06:30:31;;;;;;;25.50;14.90;;;;;;;;;;5027227;28;20079;-79
2024/01/26 06:32:57;;;;;;;28.83;14.98;;;;;;;;;;5028993;28;20014;-80
2024/01/26 06:35:23;;;;;;;27.02;15.80;;;;;;;;;;5030220;28;20488;-80
2024/01/26 06:37:49;;;;;;;26.50;14.55;;;;;;;;;;5047447;28;20017;-80
2024/01/26 06:40:15;;;;;;;27.25;14.18;;;;;;;;;;5047739;28;20024;-80
2024/01/26 06:42:41;;;;;;;25.98;14.38;;;;;;;;;;5028923;28;20041;-80
2024/01/26 06:45:11;;;;;;;25.20;13.70;;;;;;;;;;5028453;28;20144;-80
2024/01/26 06:47:37;;;;;;;26.02;13.45;;;;;;;;;;5046348;28;20017;-80
2024/01/26 06:50:04;;;;;;;26.38;13.07;;;;;;;;;;5048871;28;20466;-79
2024/01/26 06:52:31;;;;;;;22.80;12.32;;;;;;;;;;5030851;28;20032;-80
2024/01/26 06:54:57;;;;;;;24.67;13.25;;;;;;;;;;5043384;28;20017;-82
2024/01/26 06:57:23;;;;;;;26.77;13.40;;;;;;;;;;5045849;28;20029;-81
2024/01/26 06:59:49;;;;;;;25.52;12.85;;;;;;;;;;5047824;28;20009;-80
2024/01/26 07:02:15;;;;;;;25.63;12.50;;;;;;;;;;5046671;28;20032;-82
2024/01/26 07:04:43;;;;;;;20.90;10.63;;;;;;;;;;5048657;28;20017;-80
2024/01/26 07:07:09;;;;;;;19.88;10.55;;;;;;;;;;5047430;28;20473;-79
2024/01/26 07:09:35;;;;;;;19.98;10.30;;;;;;;;;;5050410;28;20035;-80
2024/01/26 07:12:03;;;;;;;21.15;10.40;;;;;;;;;;5048920;28;20025;-80
2024/01/26 07:14:29;;;;;;;15.93;9.55;;;;;;;;;;5051620;28;20005;-81
2024/01/26 07:16:55;;;;;;;17.35;8.82;;;;;;;;;;5050381;28;20107;-80
2024/01/26 07:19:21;;;;;;;16.60;8.30;;;;;;;;;;5050979;28;20035;-80
2024/01/26 07:21:47;;;;;;;16.25;7.85;;;;;;;;;;5047609;28;20009;-81
2024/01/26 07:24:13;;;;;;;15.05;6.72;;;;;;;;;;5052987;28;20111;-82
2024/01/26 07:26:39;;;;;;;16.65;6.85;;;;;;;;;;5053685;28;20100;-83
2024/01/26 07:29:05;;;;;;;16.58;7.53;;;;;;;;;;5043468;28;20072;-83
2024/01/26 07:31:31;;;;;;;18.98;7.47;;;;;;;;;;5032224;28;20033;-81
2024/01/26 07:33:57;;;;;;;18.17;7.85;;;;;;;;;;5034281;28;20018;-81
2024/01/26 07:36:23;;;;;;;19.50;7.40;;;;;;;;;;5035657;28;20025;-82
2024/01/26 07:38:49;;;;;;;18.25;7.00;;;;;;;;;;5047343;28;20070;-82
2024/01/26 07:41:15;;;;;;;21.98;7.95;;;;;;;;;;5046938;28;20670;-82
2024/01/26 07:43:41;;;;;;;17.58;7.25;;;;;;;;;;5052632;28;20013;-81
2024/01/26 07:46:07;;;;;;;17.80;7.07;;;;;;;;;;5052482;28;20024;-82
2024/01/26 07:48:33;;;;;;;20.13;6.90;;;;;;;;;;5052215;28;20120;-83
2024/01/26 07:50:59;;;;;;;19.58;7.50;;;;;;;;;;5053786;28;20025;-83
2024/01/26 07:53:25;;;;;;;14.48;6.93;;;;;;;;;;5053665;28;20013;-83
2024/01/26 07:55:51;;;;;;;19.48;6.20;;;;;;;;;;5052910;28;20040;-83
2024/01/26 07:58:17;;;;;;;16.92;6.22;;;;;;;;;;5051631;28;20047;-85
2024/01/26 08:00:44;;;;;;;17.48;6.35;;;;;;;;;;5051604;28;20059;-82
2024/01/26 08:03:11;;;;;;;13.90;5.40;;;;;;;;;;5032848;28;20478;-82
2024/01/26 08:05:37;;;;;;;22.30;5.03;;;;;;;;;;5031445;28;20032;-84
2024/01/26 08:08:03;;;;;;;15.60;4.97;;;;;;;;;;5046515;28;20036;-83
2024/01/26 08:10:29;;;;;;;20.05;4.68;;;;;;;;;;5053039;28;20025;-83
2024/01/26 08:12:55;;;;;;;22.92;4.63;;;;;;;;;;5044319;28;20045;-82
2024/01/26 08:15:21;;;;;;;18.88;4.43;;;;;;;;;;5051843;28;20021;-83
2024/01/26 08:17:47;;;;;;;17.88;4.78;;;;;;;;;;5051373;28;20028;-83
2024/01/26 08:20:13;;;;;;;21.13;4.78;;;;;;;;;;5051995;28;20078;-84
2024/01/26 08:22:40;;;;;;;12.40;3.22;;;;;;;;;;5040205;28;20049;-83
2024/01/26 08:25:07;;;;;;;19.48;4.10;;;;;;;;;;5031395;28;20032;-83
2024/01/26 08:27:33;;;;;;;17.15;4.22;;;;;;;;;;5031438;28;20022;-84
2024/01/26 08:29:59;;;;;;;19.45;4.50;;;;;;;;;;5032358;28;20067;-83
2024/01/26 08:32:25;;;;;;;18.63;4.13;;;;;;;;;;5044950;28;20039;-84
2024/01/26 08:34:51;;;;;;;17.70;4.15;;;;;;;;;;5041919;28;20028;-83
2024/01/26 08:37:17;;;;;;;18.83;3.90;;;;;;;;;;5042484;28;20444;-83
2024/01/26 08:39:44;;;;;;;11.95;2.13;;;;;;;;;;5042396;28;20021;-84
2024/01/26 08:42:10;;;;;;;16.30;3.22;;;;;;;;;;5048742;28;20016;-84
2024/01/26 08:44:37;;;;;;;16.15;2.65;;;;;;;;;;5040804;28;20017;-84
2024/01/26 08:47:03;;;;;;;12.02;1.60;;;;;;;;;;5045087;28;20477;-84
2024/01/26 08:49:30;;;;;;;12.77;2.08;;;;;;;;;;5035745;28;20036;-84
2024/01/26 08:51:57;;;;;;;15.95;1.65;;;;;;;;;;5050912;28;20025;-84
2024/01/26 08:54:24;;;;;;;12.05;1.48;;;;;;;;;;5047093;28;20032;-83
2024/01/26 08:56:50;;;;;;;10.75;1.30;;;;;;;;;;5049961;28;20441;-83
2024/01/26 08:59:16;;;;;;;10.02;1.40;;;;;;;;;;5030888;28;20394;-84
2024/01/26 09:01:42;;;;;;;7.97;1.33;;;;;;;;;;5030456;28;20402;-83
2024/01/26 09:04:08;;;;;;;8.57;1.45;;;;;;;;;;5050437;28;20546;-85
2024/01/26 09:06:38;;;;;;;9.70;1.48;;;;;;;;;;5052047;28;20032;-84
2024/01/26 09:09:04;;;;;;;12.63;2.55;;;;;;;;;;5045937;28;20075;-84
2024/01/26 09:11:31;;;;;;;16.70;1.70;;;;;;;;;;5050582;28;20037;-83
2024/01/26 09:13:57;;;;;;;14.13;1.77;;;;;;;;;;5045846;28;20029;-85
2024/01/26 09:16:24;;;;;;;12.95;1.92;;;;;;;;;;5049051;28;20029;-82
2024/01/26 09:18:50;;;;;;;14.07;1.70;;;;;;;;;;5048356;28;20455;-83
2024/01/26 09:21:16;;;;;;;16.15;1.73;;;;;;;;;;5049926;28;20508;-83
2024/01/26 09:23:45;;;;;;;16.30;1.80;;;;;;;;;;5034591;28;20143;-84
2024/01/26 09:26:11;;;;;;;13.73;2.28;;;;;;;;;;5029969;28;20033;-83
2024/01/26 09:28:38;;;;;;;16.02;1.70;;;;;;;;;;5033981;28;20188;-83
2024/01/26 09:31:04;;;;;;;12.13;1.70;;;;;;;;;;5037196;28;20788;-83
2024/01/26 09:33:31;;;;;;;15.25;1.70;;;;;;;;;;5042456;28;20025;-84
2024/01/26 09:35:57;;;;;;;11.27;1.58;;;;;;;;;;5044796;28;20025;-83
2024/01/26 09:38:26;;;;;;;18.67;2.60;;;;;;;;;;5038957;28;20029;-83
2024/01/26 09:40:52;;;;;;;11.43;1.80;;;;;;;;;;5032770;28;20031;-83
2024/01/26 09:43:18;;;;;;;13.25;1.85;;;;;;;;;;5038368;28;20021;-82
2024/01/26 09:45:44;;;;;;;19.35;2.83;;;;;;;;;;5036790;28;20016;-84
2024/01/26 09:48:10;;;;;;;11.02;2.22;;;;;;;;;;5044439;28;20040;-84
2024/01/26 09:50:37;;;;;;;18.30;2.58;;;;;;;;;;5032599;28;20094;-84
2024/01/26 09:53:03;;;;;;;16.40;1.92;;;;;;;;;;5044429;28;20075;-84
2024/01/26 09:55:29;;;;;;;14.23;2.25;;;;;;;;;;5048691;28;20025;-84
2024/01/26 09:57:56;;;;;;;14.45;2.35;;;;;;;;;;5050544;28;20009;-84
2024/01/26 10:00:22;;;;;;;11.57;1.73;;;;;;;;;;5039814;28;20025;-84
2024/01/26 10:02:49;;;;;;;12.85;2.13;;;;;;;;;;5033031;28;20032;-84
2024/01/26 10:05:17;;;;;;;19.77;2.97;;;;;;;;;;5044069;28;20044;-84
2024/01/26 10:07:45;;;;;;;14.88;2.10;;;;;;;;;;5050703;28;20092;-84
2024/01/26 10:10:12;;;;;;;15.13;2.05;;;;;;;;;;5039892;28;20461;-84
2024/01/26 10:12:38;;;;;;;11.45;2.08;;;;;;;;;;5043019;28;20042;-84
2024/01/26 10:15:05;;;;;;;12.98;2.95;;;;;;;;;;5041499;28;20036;-84
2024/01/26 10:17:31;;;;;;;15.52;2.78;;;;;;;;;;5049473;28;20043;-84
2024/01/26 10:20:14;;;;;;;14.55;2.55;;;;;;;;;;5037177;28;20018;-84
2024/01/26 10:22:41;;;;;;;19.27;2.97;;;;;;;;;;5030109;28;20503;-83
2024/01/26 10:25:08;;;;;;;12.55;2.45;;;;;;;;;;5042171;28;20036;-84
2024/01/26 10:27:34;;;;;;;17.25;2.65;;;;;;;;;;5047772;28;20013;-84
2024/01/26 10:30:00;;;;;;;16.65;2.92;;;;;;;;;;5049484;28;20076;-84
2024/01/26 10:32:30;;;;;;;20.15;3.75;;;;;;;;;;5047935;28;20071;-84
2024/01/26 10:35:00;;;;;;;15.57;3.00;;;;;;;;;;5049098;28;20024;-84
2024/01/26 10:37:27;;;;;;;14.70;2.47;;;;;;;;;;5048310;28;20108;-84
2024/01/26 10:39:55;;;;;;;17.48;2.53;;;;;;;;;;5049186;28;20416;-83
2024/01/26 10:42:21;;;;;;;14.77;2.45;;;;;;;;;;5048793;28;20013;-83
2024/01/26 10:44:51;;;;;;;16.75;3.10;;;;;;;;;;5043458;28;20014;-84
2024/01/26 10:47:17;;;;;;;22.73;3.17;;;;;;;;;;5031498;28;20017;-84
2024/01/26 10:49:48;;;;;;;21.15;2.40;;;;;;;;;;5041292;28;20013;-84
2024/01/26 10:52:17;;;;;;;16.13;2.55;;;;;;;;;;5049477;28;20029;-84
2024/01/26 10:54:45;;;;;;;19.23;2.78;;;;;;;;;;5040271;28;20031;-84
2024/01/26 10:57:11;;;;;;;20.42;3.50;;;;;;;;;;5039677;28;20044;-84
2024/01/26 10:59:40;;;;;;;16.77;2.65;;;;;;;;;;5044446;28;20018;-84
2024/01/26 11:02:08;;;;;;;23.02;2.63;;;;;;;;;;5045135;28;20032;-84
2024/01/26 11:04:34;;;;;;;12.60;2.42;;;;;;;;;;5046212;28;20416;-84
2024/01/26 11:07:00;;;;;;;15.43;2.35;;;;;;;;;;5048815;28;20500;-84
2024/01/26 11:09:32;;;;;;;23.42;3.47;;;;;;;;;;5042987;28;20025;-83
2024/01/26 11:11:58;;;;;;;19.27;3.78;;;;;;;;;;5045058;28;20021;-84
2024/01/26 11:14:27;;;;;;;19.38;3.50;;;;;;;;;;5046020;28;20040;-84
2024/01/26 11:16:54;;;;;;;17.90;3.15;;;;;;;;;;5046340;28;20108;-84
2024/01/26 11:19:23;;;;;;;22.50;3.40;;;;;;;;;;5044523;28;20018;-84
2024/01/26 11:21:49;;;;;;;20.55;3.55;;;;;;;;;;5040842;28;20033;-84
2024/01/26 11:24:19;;;;;;;22.58;3.08;;;;;;;;;;5045344;28;20045;-84
2024/01/26 11:27:01;;;;;;;22.17;3.35;;;;;;;;;;5049176;28;20112;-84
2024/01/26 11:29:34;;;;;;;18.55;3.17;;;;;;;;;;5050680;28;20052;-83
2024/01/26 11:32:00;;;;;;;23.00;3.53;;;;;;;;;;5050580;28;20029;-84
2024/01/26 11:34:26;;;;;;;23.15;3.25;;;;;;;;;;5040619;28;20181;-84
2024/01/26 11:37:09;;;;;;;16.20;2.75;;;;;;;;;;5047594;28;20040;-84
2024/01/26 11:39:35;;;;;;;18.35;3.35;;;;;;;;;;5048225;28;20113;-83
2024/01/26 11:42:01;;;;;;;19.33;3.63;;;;;;;;;;5049260;28;20577;-84
2024/01/26 11:44:31;;;;;;;13.55;2.42;;;;;;;;;;5050979;28;20013;-84
2024/01/26 11:46:57;;;;;;;13.15;2.38;;;;;;;;;;5047056;28;20021;-84
2024/01/26 11:49:23;;;;;;;18.88;2.58;;;;;;;;;;5049043;28;20021;-84
2024/01/26 11:51:49;;;;;;;20.02;3.13;;;;;;;;;;5036877;28;20037;-84
2024/01/26 11:54:15;;;;;;;14.68;2.92;;;;;;;;;;5031076;28;20097;-84
2024/01/26 11:56:42;;;;;;;16.90;2.50;;;;;;;;;;5034965;28;20512;-84
2024/01/26 11:59:08;;;;;;;10.57;1.65;;;;;;;;;;5031296;28;20061;-83
2024/01/26 12:01:34;;;;;;;18.30;2.58;;;;;;;;;;5043035;28;20547;-85
2024/01/26 12:04:01;;;;;;;19.08;3.80;;;;;;;;;;5043939;28;20611;-85
2024/01/26 12:06:27;;;;;;;15.45;1.92;;;;;;;;;;5051694;28;20044;-85
2024/01/26 12:08:55;;;;;;;15.50;2.35;;;;;;;;;;5051569;28;20033;-85
2024/01/26 12:11:21;;;;;;;13.13;3.00;;;;;;;;;;5052711;28;20028;-84
2024/01/26 12:13:48;;;;;;;15.65;2.50;;;;;;;;;;5049688;28;20021;-83
2024/01/26 12:16:16;;;;;;;11.95;2.45;;;;;;;;;;5045301;28;20025;-85
2024/01/26 12:18:44;;;;;;;16.88;2.67;;;;;;;;;;5041211;28;20013;-85
2024/01/26 12:21:10;;;;;;;12.45;2.40;;;;;;;;;;5047242;28;20025;-85
2024/01/26 12:23:36;;;;;;;20.73;2.92;;;;;;;;;;5050757;28;20103;-85
2024/01/26 12:26:02;;;;;;;13.82;1.77;;;;;;;;;;5050023;28;20083;-85
2024/01/26 12:28:29;;;;;;;18.35;1.98;;;;;;;;;;5051661;28;20317;-85
2024/01/26 12:30:55;;;;;;;7.13;0.82;;;;;;;;;;5049972;28;20497;-85
2024/01/26 12:33:23;;;;;;;8.00;0.90;;;;;;;;;;5049650;28;20423;-86
2024/01/26 12:35:51;;;;;;;11.00;1.30;;;;;;;;;;5050612;28;20029;-85
2024/01/26 12:38:18;;;;;;;10.77;1.40;;;;;;;;;;5051611;28;20381;-85
2024/01/26 12:40:44;;;;;;;7.57;1.10;;;;;;;;;;5050725;28;20378;-85
2024/01/26 12:43:11;;;;;;;10.48;1.05;;;;;;;;;;5049802;28;20013;-85
2024/01/26 12:45:38;;;;;;;9.38;1.23;;;;;;;;;;5051039;28;20104;-85
2024/01/26 12:48:04;;;;;;;8.38;1.75;;;;;;;;;;5050315;28;20486;-85
2024/01/26 12:50:30;;;;;;;10.45;1.52;;;;;;;;;;5048621;28;20381;-85
2024/01/26 12:52:56;;;;;;;8.40;1.52;;;;;;;;;;5049422;28;20044;-85
2024/01/26 12:55:23;;;;;;;10.05;1.58;;;;;;;;;;5049593;28;20432;-84
2024/01/26 12:57:49;;;;;;;8.73;1.90;;;;;;;;;;5050700;28;20021;-85
2024/01/26 13:00:17;;;;;;;5.43;0.90;;;;;;;;;;5045093;28;20025;-85
2024/01/26 13:02:42;;;;;;;9.15;1.92;;;;;;;;;;5044445;28;20032;-85
2024/01/26 13:05:09;;;;;;;10.18;1.65;;;;;;;;;;5050097;28;20025;-86
2024/01/26 13:07:37;;;;;;;15.77;3.25;;;;;;;;;;5049553;28;20021;-87
2024/01/26 13:10:10;;;;;;;9.52;2.08;;;;;;;;;;5046796;28;20037;-85
2024/01/26 13:12:36;;;;;;;9.07;1.40;;;;;;;;;;5047152;28;20036;-85
2024/01/26 13:15:02;;;;;;;16.52;1.63;;;;;;;;;;5051262;28;20032;-85
2024/01/26 13:17:29;;;;;;;9.10;1.33;;;;;;;;;;5043952;28;20009;-85
2024/01/26 13:19:55;;;;;;;20.67;1.70;;;;;;;;;;5037934;28;20385;-85
2024/01/26 13:22:21;;;;;;;12.85;1.65;;;;;;;;;;5049219;28;20021;-86
2024/01/26 13:24:47;;;;;;;14.45;1.45;;;;;;;;;;5046711;28;20024;-85
2024/01/26 13:27:15;;;;;;;12.80;1.83;;;;;;;;;;5044445;28;20025;-86
2024/01/26 13:29:41;;;;;;;12.95;1.13;;;;;;;;;;5048109;28;20049;-85
2024/01/26 13:32:07;;;;;;;9.95;1.88;;;;;;;;;;5051132;28;20489;-85
2024/01/26 13:34:33;;;;;;;16.17;2.27;;;;;;;;;;5049566;28;20017;-85
2024/01/26 13:37:00;;;;;;;13.82;2.35;;;;;;;;;;5049913;28;20025;-85
2024/01/26 13:39:26;;;;;;;17.98;2.00;;;;;;;;;;5048855;28;20024;-85
2024/01/26 13:41:52;;;;;;;14.30;2.70;;;;;;;;;;5038228;28;20405;-86
2024/01/26 13:44:20;;;;;;;14.95;2.10;;;;;;;;;;5049682;28;20397;-86
2024/01/26 13:46:46;;;;;;;12.80;1.63;;;;;;;;;;5038843;28;20487;-84
2024/01/26 13:49:12;;;;;;;12.68;2.75;;;;;;;;;;5038548;28;20132;-85
2024/01/26 13:51:38;;;;;;;14.93;2.72;;;;;;;;;;5040850;28;20104;-87
2024/01/26 13:54:04;;;;;;;15.73;2.00;;;;;;;;;;5042928;28;20025;-87
2024/01/26 13:56:30;;;;;;;14.52;2.30;;;;;;;;;;5039220;28;20120;-86
2024/01/26 13:58:56;;;;;;;10.52;1.75;;;;;;;;;;5045682;28;20155;-86
2024/01/26 14:01:23;;;;;;;11.80;1.60;;;;;;;;;;5044454;28;20014;-87
2024/01/26 14:03:52;;;;;;;14.80;1.55;;;;;;;;;;5045993;28;20347;-87
2024/01/26 14:06:18;;;;;;;9.18;1.88;;;;;;;;;;5029014;28;20067;-86
2024/01/26 14:08:44;;;;;;;16.25;1.83;;;;;;;;;;5042753;28;20444;-86
2024/01/26 14:11:10;;;;;;;10.85;1.42;;;;;;;;;;5049023;28;20043;-86
2024/01/26 14:16:21;;;;;;;18.25;2.88;;;;;;;;;;5074270;28;20071;-86
2024/01/26 14:18:47;;;;;;;16.25;2.75;;;;;;;;;;5078191;28;20029;-85
2024/01/26 14:21:13;;;;;;;12.07;2.13;;;;;;;;;;5077776;28;20149;-86
2024/01/26 14:23:39;;;;;;;20.17;2.42;;;;;;;;;;5077338;28;20230;-86